sensor_id;sensor_type;location;lat;lon;timestamp;pressure;altitude;pressure_sealevel;temperature;humidity
75549;BME280;64133;56.002;37.208;2023-12-07T00:04:54;100883.31;;;-9.15;74.15
75549;BME280;64133;56.002;37.208;2023-12-07T00:09:59;100883.61;;;-9.21;74.46
75549;BME280;64133;56.002;37.208;2023-12-07T00:15:05;100878.06;;;-9.22;74.58
75549;BME280;64133;56.002;37.208;2023-12-07T00:20:12;100883.28;;;-9.16;74.75
75549;BME280;64133;56.002;37.208;2023-12-07T00:25:19;100883.19;;;-8.81;74.69
75549;BME280;64133;56.002;37.208;2023-12-07T00:30:24;100884.69;;;-9.10;74.16
75549;BME280;64133;56.002;37.208;2023-12-07T00:35:29;100885.97;;;-9.29;74.15
75549;BME280;64133;56.002;37.208;2023-12-07T00:40:37;100885.11;;;-9.29;74.58
75549;BME280;64133;56.002;37.208;2023-12-07T00:45:42;100887.34;;;-9.24;74.67
75549;BME280;64133;56.002;37.208;2023-12-07T00:50:47;100893.70;;;-9.26;74.92
75549;BME280;64133;56.002;37.208;2023-12-07T00:55:52;100891.70;;;-9.39;74.63
75549;BME280;64133;56.002;37.208;2023-12-07T01:00:57;100899.22;;;-9.07;74.56
75549;BME280;64133;56.002;37.208;2023-12-07T01:06:02;100896.34;;;-9.23;74.42
75549;BME280;64133;56.002;37.208;2023-12-07T01:11:07;100902.73;;;-9.40;74.10
75549;BME280;64133;56.002;37.208;2023-12-07T01:16:12;100911.46;;;-9.30;74.63
75549;BME280;64133;56.002;37.208;2023-12-07T01:21:17;100879.78;;;-9.40;74.48
75549;BME280;64133;56.002;37.208;2023-12-07T01:26:22;100906.92;;;-9.23;74.05
75549;BME280;64133;56.002;37.208;2023-12-07T01:31:27;100906.41;;;-8.90;74.19
75549;BME280;64133;56.002;37.208;2023-12-07T01:36:32;100913.17;;;-9.11;73.57
75549;BME280;64133;56.002;37.208;2023-12-07T01:41:37;100924.19;;;-9.13;73.48
75549;BME280;64133;56.002;37.208;2023-12-07T01:46:42;100931.12;;;-9.26;73.52
75549;BME280;64133;56.002;37.208;2023-12-07T01:51:47;100928.71;;;-9.38;74.28
75549;BME280;64133;56.002;37.208;2023-12-07T01:56:52;100929.77;;;-9.29;73.81
75549;BME280;64133;56.002;37.208;2023-12-07T02:01:56;100939.21;;;-9.25;73.80
75549;BME280;64133;56.002;37.208;2023-12-07T02:07:01;100934.86;;;-9.29;73.42
75549;BME280;64133;56.002;37.208;2023-12-07T02:12:06;100940.84;;;-9.27;73.73
75549;BME280;64133;56.002;37.208;2023-12-07T02:17:14;100946.48;;;-9.23;73.97
75549;BME280;64133;56.002;37.208;2023-12-07T02:22:18;100950.28;;;-9.25;73.87
75549;BME280;64133;56.002;37.208;2023-12-07T02:27:38;100948.65;;;-9.40;74.27
75549;BME280;64133;56.002;37.208;2023-12-07T02:32:43;100953.22;;;-9.44;74.12
75549;BME280;64133;56.002;37.208;2023-12-07T02:37:49;100952.33;;;-9.27;74.04
75549;BME280;64133;56.002;37.208;2023-12-07T02:42:53;100950.88;;;-9.18;73.97
75549;BME280;64133;56.002;37.208;2023-12-07T02:47:59;100954.80;;;-8.96;73.77
75549;BME280;64133;56.002;37.208;2023-12-07T02:53:04;100962.26;;;-9.22;73.92
75549;BME280;64133;56.002;37.208;2023-12-07T02:58:09;100972.91;;;-9.39;73.72
75549;BME280;64133;56.002;37.208;2023-12-07T03:03:14;100974.93;;;-9.43;73.57
75549;BME280;64133;56.002;37.208;2023-12-07T03:08:19;100971.30;;;-9.52;73.64
75549;BME280;64133;56.002;37.208;2023-12-07T03:13:29;100978.54;;;-9.34;74.26
75549;BME280;64133;56.002;37.208;2023-12-07T03:18:34;100985.91;;;-9.45;73.60
75549;BME280;64133;56.002;37.208;2023-12-07T03:23:39;100985.86;;;-9.64;73.81
75549;BME280;64133;56.002;37.208;2023-12-07T03:28:44;100995.48;;;-9.37;73.85
75549;BME280;64133;56.002;37.208;2023-12-07T03:33:49;100997.11;;;-9.40;73.71
75549;BME280;64133;56.002;37.208;2023-12-07T03:38:53;100996.83;;;-9.51;74.16
75549;BME280;64133;56.002;37.208;2023-12-07T03:43:58;100997.72;;;-9.66;74.03
75549;BME280;64133;56.002;37.208;2023-12-07T03:49:04;101006.28;;;-9.47;73.65
75549;BME280;64133;56.002;37.208;2023-12-07T03:54:08;101008.53;;;-9.42;73.48
75549;BME280;64133;56.002;37.208;2023-12-07T03:59:14;101002.87;;;-9.47;73.61
75549;BME280;64133;56.002;37.208;2023-12-07T04:04:18;101011.30;;;-9.50;73.62
75549;BME280;64133;56.002;37.208;2023-12-07T04:09:23;101017.38;;;-9.45;73.25
75549;BME280;64133;56.002;37.208;2023-12-07T04:14:29;101013.11;;;-9.46;73.54
75549;BME280;64133;56.002;37.208;2023-12-07T04:19:33;101017.44;;;-9.43;74.37
75549;BME280;64133;56.002;37.208;2023-12-07T04:24:38;101025.33;;;-9.17;73.54
75549;BME280;64133;56.002;37.208;2023-12-07T04:29:44;101030.41;;;-9.18;73.65
75549;BME280;64133;56.002;37.208;2023-12-07T04:34:49;101028.11;;;-9.41;73.27
75549;BME280;64133;56.002;37.208;2023-12-07T04:39:53;101030.27;;;-9.40;73.67
75549;BME280;64133;56.002;37.208;2023-12-07T04:44:58;101028.58;;;-9.40;73.31
75549;BME280;64133;56.002;37.208;2023-12-07T04:50:03;101035.52;;;-9.34;73.81
75549;BME280;64133;56.002;37.208;2023-12-07T04:55:09;101031.58;;;-9.54;73.35
75549;BME280;64133;56.002;37.208;2023-12-07T05:00:15;101035.11;;;-9.33;73.72
75549;BME280;64133;56.002;37.208;2023-12-07T05:05:20;101040.48;;;-9.56;73.54
75549;BME280;64133;56.002;37.208;2023-12-07T05:10:25;101052.84;;;-9.54;73.55
75549;BME280;64133;56.002;37.208;2023-12-07T05:15:30;101060.54;;;-9.68;73.75
75549;BME280;64133;56.002;37.208;2023-12-07T05:20:35;101059.44;;;-9.78;73.45
75549;BME280;64133;56.002;37.208;2023-12-07T05:25:40;101057.72;;;-9.93;73.58
75549;BME280;64133;56.002;37.208;2023-12-07T05:30:45;101077.98;;;-9.83;73.90
75549;BME280;64133;56.002;37.208;2023-12-07T05:35:53;101076.05;;;-9.60;73.96
75549;BME280;64133;56.002;37.208;2023-12-07T05:40:58;101086.01;;;-9.70;73.79
75549;BME280;64133;56.002;37.208;2023-12-07T05:46:03;101087.03;;;-9.79;73.82
75549;BME280;64133;56.002;37.208;2023-12-07T05:51:12;101088.36;;;-9.76;73.65
75549;BME280;64133;56.002;37.208;2023-12-07T05:56:20;101082.66;;;-9.67;74.03
75549;BME280;64133;56.002;37.208;2023-12-07T06:01:25;101086.52;;;-9.81;73.06
75549;BME280;64133;56.002;37.208;2023-12-07T06:06:30;101094.10;;;-9.69;73.62
75549;BME280;64133;56.002;37.208;2023-12-07T06:11:35;101098.81;;;-9.82;73.31
75549;BME280;64133;56.002;37.208;2023-12-07T06:16:40;101108.26;;;-10.08;73.28
75549;BME280;64133;56.002;37.208;2023-12-07T06:21:45;101103.05;;;-9.83;73.76
75549;BME280;64133;56.002;37.208;2023-12-07T06:26:50;101106.27;;;-9.89;73.23
75549;BME280;64133;56.002;37.208;2023-12-07T06:31:59;101101.11;;;-9.76;74.65
75549;BME280;64133;56.002;37.208;2023-12-07T06:37:04;101111.31;;;-9.76;73.10
75549;BME280;64133;56.002;37.208;2023-12-07T06:42:09;101095.38;;;-9.69;72.97
75549;BME280;64133;56.002;37.208;2023-12-07T06:47:14;101110.52;;;-9.75;73.23
75549;BME280;64133;56.002;37.208;2023-12-07T06:52:19;101111.63;;;-9.65;73.37
75549;BME280;64133;56.002;37.208;2023-12-07T06:57:24;101109.78;;;-9.55;73.12
75549;BME280;64133;56.002;37.208;2023-12-07T07:02:29;101108.73;;;-9.77;73.53
75549;BME280;64133;56.002;37.208;2023-12-07T07:07:34;101118.05;;;-9.32;73.33
75549;BME280;64133;56.002;37.208;2023-12-07T07:12:39;101114.66;;;-9.63;72.14
75549;BME280;64133;56.002;37.208;2023-12-07T07:17:44;101119.40;;;-9.45;72.11
75549;BME280;64133;56.002;37.208;2023-12-07T07:22:49;101115.78;;;-9.37;72.14
75549;BME280;64133;56.002;37.208;2023-12-07T07:27:54;101123.66;;;-9.29;72.26
75549;BME280;64133;56.002;37.208;2023-12-07T07:32:59;101123.36;;;-9.08;72.23
75549;BME280;64133;56.002;37.208;2023-12-07T07:38:05;101124.44;;;-9.48;71.55
75549;BME280;64133;56.002;37.208;2023-12-07T07:43:10;101129.68;;;-9.10;71.18
75549;BME280;64133;56.002;37.208;2023-12-07T07:48:15;101134.75;;;-9.27;71.52
75549;BME280;64133;56.002;37.208;2023-12-07T07:53:20;101128.05;;;-8.92;71.65
75549;BME280;64133;56.002;37.208;2023-12-07T07:58:25;101143.90;;;-9.04;70.68
75549;BME280;64133;56.002;37.208;2023-12-07T08:03:30;101129.33;;;-8.75;70.69
75549;BME280;64133;56.002;37.208;2023-12-07T08:08:35;101134.19;;;-8.30;70.33
75549;BME280;64133;56.002;37.208;2023-12-07T08:13:41;101139.38;;;-8.64;69.10
75549;BME280;64133;56.002;37.208;2023-12-07T08:18:46;101147.31;;;-8.70;69.95
75549;BME280;64133;56.002;37.208;2023-12-07T08:23:51;101148.70;;;-8.83;69.22
75549;BME280;64133;56.002;37.208;2023-12-07T08:28:56;101149.56;;;-8.65;69.70
75549;BME280;64133;56.002;37.208;2023-12-07T08:34:01;101146.92;;;-8.86;69.83
75549;BME280;64133;56.002;37.208;2023-12-07T08:39:06;101141.87;;;-9.16;70.34
75549;BME280;64133;56.002;37.208;2023-12-07T08:44:13;101135.88;;;-8.31;69.72
75549;BME280;64133;56.002;37.208;2023-12-07T08:49:18;101143.23;;;-8.45;69.69
75549;BME280;64133;56.002;37.208;2023-12-07T08:54:23;101143.09;;;-8.86;69.53
75549;BME280;64133;56.002;37.208;2023-12-07T08:59:28;101135.35;;;-8.71;69.60
75549;BME280;64133;56.002;37.208;2023-12-07T09:04:33;101135.35;;;-8.71;69.95
75549;BME280;64133;56.002;37.208;2023-12-07T09:09:38;101133.53;;;-8.41;67.75
75549;BME280;64133;56.002;37.208;2023-12-07T09:14:43;101131.16;;;-8.69;68.51
75549;BME280;64133;56.002;37.208;2023-12-07T09:19:48;101124.89;;;-8.08;68.05
75549;BME280;64133;56.002;37.208;2023-12-07T09:24:53;101131.03;;;-7.79;67.48
75549;BME280;64133;56.002;37.208;2023-12-07T09:29:58;101130.34;;;-8.12;66.17
75549;BME280;64133;56.002;37.208;2023-12-07T09:35:04;101134.53;;;-7.96;66.71
75549;BME280;64133;56.002;37.208;2023-12-07T09:40:15;101134.19;;;-8.30;66.83
75549;BME280;64133;56.002;37.208;2023-12-07T09:45:22;101133.31;;;-8.12;66.81
75549;BME280;64133;56.002;37.208;2023-12-07T09:50:27;101127.59;;;-7.61;66.73
75549;BME280;64133;56.002;37.208;2023-12-07T09:55:32;101119.48;;;-6.12;65.05
75549;BME280;64133;56.002;37.208;2023-12-07T10:00:37;101118.86;;;-5.96;63.04
75549;BME280;64133;56.002;37.208;2023-12-07T10:05:57;101109.55;;;-2.65;60.19
75549;BME280;64133;56.002;37.208;2023-12-07T10:11:06;101114.66;;;-4.67;56.85
75549;BME280;64133;56.002;37.208;2023-12-07T10:16:13;101121.35;;;-7.08;61.88
75549;BME280;64133;56.002;37.208;2023-12-07T10:21:17;101133.64;;;-7.97;63.66
75549;BME280;64133;56.002;37.208;2023-12-07T10:26:23;101136.55;;;-8.19;64.70
75549;BME280;64133;56.002;37.208;2023-12-07T10:31:29;101135.44;;;-7.93;64.61
75549;BME280;64133;56.002;37.208;2023-12-07T10:36:34;101131.84;;;-8.21;65.05
75549;BME280;64133;56.002;37.208;2023-12-07T10:41:39;101126.36;;;-8.57;65.76
75549;BME280;64133;56.002;37.208;2023-12-07T10:46:45;101133.95;;;-8.41;67.05
75549;BME280;64133;56.002;37.208;2023-12-07T10:51:51;101142.44;;;-8.61;67.00
75549;BME280;64133;56.002;37.208;2023-12-07T10:56:58;101137.63;;;-8.66;66.82
75549;BME280;64133;56.002;37.208;2023-12-07T11:02:18;101150.20;;;-8.74;67.40
75549;BME280;64133;56.002;37.208;2023-12-07T11:07:31;101153.92;;;-9.10;67.67
75549;BME280;64133;56.002;37.208;2023-12-07T11:17:55;101141.64;;;-9.09;67.86
75549;BME280;64133;56.002;37.208;2023-12-07T11:23:05;101146.37;;;-9.39;67.94
75549;BME280;64133;56.002;37.208;2023-12-07T11:28:12;101157.59;;;-9.32;68.17
75549;BME280;64133;56.002;37.208;2023-12-07T11:33:19;101156.16;;;-9.38;68.11
75549;BME280;64133;56.002;37.208;2023-12-07T11:38:23;101150.93;;;-9.43;68.30
75549;BME280;64133;56.002;37.208;2023-12-07T11:49:06;101155.88;;;-9.17;68.73
75549;BME280;64133;56.002;37.208;2023-12-07T11:54:11;101157.55;;;-9.02;68.03
75549;BME280;64133;56.002;37.208;2023-12-07T11:59:16;101156.25;;;-9.35;67.90
75549;BME280;64133;56.002;37.208;2023-12-07T12:04:22;101155.17;;;-9.12;68.26
75549;BME280;64133;56.002;37.208;2023-12-07T12:09:27;101162.67;;;-9.18;67.68
75549;BME280;64133;56.002;37.208;2023-12-07T12:14:33;101141.14;;;-9.43;68.21
75549;BME280;64133;56.002;37.208;2023-12-07T12:19:38;101160.94;;;-9.34;69.14
75549;BME280;64133;56.002;37.208;2023-12-07T12:24:43;101162.18;;;-9.66;68.92
75549;BME280;64133;56.002;37.208;2023-12-07T12:29:50;101166.06;;;-10.06;69.86
75549;BME280;64133;56.002;37.208;2023-12-07T12:35:06;101164.48;;;-10.02;69.84
75549;BME280;64133;56.002;37.208;2023-12-07T12:40:13;101167.55;;;-9.85;70.02
75549;BME280;64133;56.002;37.208;2023-12-07T12:45:17;101160.30;;;-9.72;70.33
75549;BME280;64133;56.002;37.208;2023-12-07T12:50:36;101172.08;;;-9.75;70.24
75549;BME280;64133;56.002;37.208;2023-12-07T12:55:41;101175.05;;;-9.90;70.33
75549;BME280;64133;56.002;37.208;2023-12-07T13:00:46;101178.19;;;-10.13;70.73
75549;BME280;64133;56.002;37.208;2023-12-07T13:05:51;101177.39;;;-10.10;70.52
75549;BME280;64133;56.002;37.208;2023-12-07T13:10:56;101174.84;;;-10.10;70.54
75549;BME280;64133;56.002;37.208;2023-12-07T13:16:01;101185.86;;;-10.12;70.91
75549;BME280;64133;56.002;37.208;2023-12-07T13:21:07;101187.83;;;-10.03;71.03
75549;BME280;64133;56.002;37.208;2023-12-07T13:26:12;101189.93;;;-10.04;71.29
75549;BME280;64133;56.002;37.208;2023-12-07T13:31:17;101191.98;;;-10.19;71.19
75549;BME280;64133;56.002;37.208;2023-12-07T13:36:22;101185.11;;;-10.09;71.32
75549;BME280;64133;56.002;37.208;2023-12-07T13:41:28;101186.75;;;-10.24;71.01
75549;BME280;64133;56.002;37.208;2023-12-07T13:46:33;101187.97;;;-10.13;71.59
75549;BME280;64133;56.002;37.208;2023-12-07T13:51:38;101181.94;;;-10.15;71.23
75549;BME280;64133;56.002;37.208;2023-12-07T13:56:43;101182.59;;;-10.07;71.48
75549;BME280;64133;56.002;37.208;2023-12-07T14:01:48;101181.80;;;-9.92;70.70
75549;BME280;64133;56.002;37.208;2023-12-07T14:06:53;101180.46;;;-9.94;71.06
75549;BME280;64133;56.002;37.208;2023-12-07T14:11:58;101189.93;;;-10.04;71.36
75549;BME280;64133;56.002;37.208;2023-12-07T14:17:04;101196.99;;;-9.81;71.40
75549;BME280;64133;56.002;37.208;2023-12-07T14:22:11;101192.63;;;-9.99;70.87
75549;BME280;64133;56.002;37.208;2023-12-07T14:27:16;101195.23;;;-9.83;71.90
75549;BME280;64133;56.002;37.208;2023-12-07T14:32:21;101206.25;;;-10.12;70.78
75549;BME280;64133;56.002;37.208;2023-12-07T14:37:26;101196.19;;;-10.21;71.17
75549;BME280;64133;56.002;37.208;2023-12-07T14:42:31;101201.94;;;-10.14;72.07
75549;BME280;64133;56.002;37.208;2023-12-07T14:47:36;101187.48;;;-9.87;71.69
75549;BME280;64133;56.002;37.208;2023-12-07T14:52:41;101198.60;;;-10.12;70.96
75549;BME280;64133;56.002;37.208;2023-12-07T14:57:46;101201.16;;;-9.97;71.47
75549;BME280;64133;56.002;37.208;2023-12-07T15:02:52;101203.70;;;-10.12;71.35
75549;BME280;64133;56.002;37.208;2023-12-07T15:07:57;101206.26;;;-9.97;71.20
75549;BME280;64133;56.002;37.208;2023-12-07T15:13:02;101199.47;;;-10.52;71.09
75549;BME280;64133;56.002;37.208;2023-12-07T15:18:07;101209.20;;;-10.53;71.31
75549;BME280;64133;56.002;37.208;2023-12-07T15:23:13;101209.59;;;-10.00;71.53
75549;BME280;64133;56.002;37.208;2023-12-07T15:28:18;101215.34;;;-10.47;71.48
75549;BME280;64133;56.002;37.208;2023-12-07T15:33:23;101202.72;;;-10.44;71.56
75549;BME280;64133;56.002;37.208;2023-12-07T15:38:28;101214.25;;;-10.28;71.31
75549;BME280;64133;56.002;37.208;2023-12-07T15:43:34;101211.02;;;-10.22;71.42
75549;BME280;64133;56.002;37.208;2023-12-07T15:48:40;101210.34;;;-10.17;71.26
75549;BME280;64133;56.002;37.208;2023-12-07T15:54:09;101202.10;;;-10.22;70.90
75549;BME280;64133;56.002;37.208;2023-12-07T15:59:19;101206.67;;;-10.26;71.45
75549;BME280;64133;56.002;37.208;2023-12-07T16:04:24;101209.68;;;-10.38;71.37
75549;BME280;64133;56.002;37.208;2023-12-07T16:09:29;101213.25;;;-10.58;71.63
75549;BME280;64133;56.002;37.208;2023-12-07T16:14:34;101223.43;;;-10.58;71.78
75549;BME280;64133;56.002;37.208;2023-12-07T16:19:39;101220.95;;;-10.44;72.11
75549;BME280;64133;56.002;37.208;2023-12-07T16:24:46;101223.58;;;-10.41;71.24
75549;BME280;64133;56.002;37.208;2023-12-07T16:29:52;101226.27;;;-10.36;71.84
75549;BME280;64133;56.002;37.208;2023-12-07T16:34:57;101223.58;;;-10.28;71.75
75549;BME280;64133;56.002;37.208;2023-12-07T16:40:03;101222.11;;;-10.34;71.20
75549;BME280;64133;56.002;37.208;2023-12-07T16:45:10;101227.73;;;-10.57;71.51
75549;BME280;64133;56.002;37.208;2023-12-07T16:50:15;101223.33;;;-10.87;71.82
75549;BME280;64133;56.002;37.208;2023-12-07T16:55:22;101222.06;;;-10.74;72.25
75549;BME280;64133;56.002;37.208;2023-12-07T17:00:27;101221.66;;;-10.74;72.11
75549;BME280;64133;56.002;37.208;2023-12-07T17:05:32;101221.41;;;-10.30;72.04
75549;BME280;64133;56.002;37.208;2023-12-07T17:10:37;101217.80;;;-10.23;71.28
75549;BME280;64133;56.002;37.208;2023-12-07T17:15:43;101217.17;;;-10.30;71.33
75549;BME280;64133;56.002;37.208;2023-12-07T17:20:48;101211.77;;;-10.26;71.09
75549;BME280;64133;56.002;37.208;2023-12-07T17:25:56;101220.84;;;-10.34;71.33
75549;BME280;64133;56.002;37.208;2023-12-07T17:31:01;101221.81;;;-10.44;71.44
75549;BME280;64133;56.002;37.208;2023-12-07T17:36:07;101216.91;;;-10.25;71.25
75549;BME280;64133;56.002;37.208;2023-12-07T17:41:12;101221.80;;;-10.17;71.51
75549;BME280;64133;56.002;37.208;2023-12-07T17:46:17;101212.94;;;-10.29;71.33
75549;BME280;64133;56.002;37.208;2023-12-07T17:51:22;101218.25;;;-10.22;71.44
75549;BME280;64133;56.002;37.208;2023-12-07T17:56:27;101212.72;;;-10.08;71.20
75549;BME280;64133;56.002;37.208;2023-12-07T18:01:32;101221.57;;;-10.10;70.92
75549;BME280;64133;56.002;37.208;2023-12-07T18:06:38;101210.42;;;-10.28;71.15
75549;BME280;64133;56.002;37.208;2023-12-07T18:11:43;101213.16;;;-10.22;71.12
75549;BME280;64133;56.002;37.208;2023-12-07T18:16:47;101206.95;;;-9.89;71.49
75549;BME280;64133;56.002;37.208;2023-12-07T18:21:52;101207.42;;;-9.73;71.15
75549;BME280;64133;56.002;37.208;2023-12-07T18:26:57;101205.64;;;-9.76;70.44
75549;BME280;64133;56.002;37.208;2023-12-07T18:32:02;101214.28;;;-9.85;70.66
75549;BME280;64133;56.002;37.208;2023-12-07T18:37:07;101214.42;;;-10.22;71.12
75549;BME280;64133;56.002;37.208;2023-12-07T18:42:13;101216.39;;;-9.86;70.97
75549;BME280;64133;56.002;37.208;2023-12-07T18:47:18;101221.52;;;-9.99;71.18
75549;BME280;64133;56.002;37.208;2023-12-07T18:52:22;101225.44;;;-9.96;70.49
75549;BME280;64133;56.002;37.208;2023-12-07T18:57:28;101221.06;;;-10.00;70.49
75549;BME280;64133;56.002;37.208;2023-12-07T19:02:39;101224.20;;;-10.21;70.25
75549;BME280;64133;56.002;37.208;2023-12-07T19:07:44;101237.91;;;-10.18;70.57
75549;BME280;64133;56.002;37.208;2023-12-07T19:12:49;101232.04;;;-10.29;70.12
75549;BME280;64133;56.002;37.208;2023-12-07T19:17:54;101229.05;;;-10.02;70.55
75549;BME280;64133;56.002;37.208;2023-12-07T19:22:59;101225.02;;;-10.09;69.62
75549;BME280;64133;56.002;37.208;2023-12-07T19:28:04;101215.49;;;-10.42;69.96
75549;BME280;64133;56.002;37.208;2023-12-07T19:33:10;101214.59;;;-10.44;70.51
75549;BME280;64133;56.002;37.208;2023-12-07T19:38:15;101230.77;;;-10.55;70.47
75549;BME280;64133;56.002;37.208;2023-12-07T19:43:20;101228.48;;;-10.34;70.95
75549;BME280;64133;56.002;37.208;2023-12-07T19:48:25;101226.84;;;-10.32;70.79
75549;BME280;64133;56.002;37.208;2023-12-07T19:53:36;101222.86;;;-10.24;70.62
75549;BME280;64133;56.002;37.208;2023-12-07T19:58:41;101219.16;;;-10.34;70.47
75549;BME280;64133;56.002;37.208;2023-12-07T20:03:48;101221.41;;;-10.56;70.46
75549;BME280;64133;56.002;37.208;2023-12-07T20:08:53;101222.16;;;-10.58;70.39
75549;BME280;64133;56.002;37.208;2023-12-07T20:13:58;101228.52;;;-10.46;70.53
75549;BME280;64133;56.002;37.208;2023-12-07T20:19:04;101231.70;;;-10.40;70.30
75549;BME280;64133;56.002;37.208;2023-12-07T20:24:09;101225.56;;;-10.45;70.63
75549;BME280;64133;56.002;37.208;2023-12-07T20:29:14;101221.73;;;-10.32;70.28
75549;BME280;64133;56.002;37.208;2023-12-07T20:34:19;101232.90;;;-10.29;70.20
75549;BME280;64133;56.002;37.208;2023-12-07T20:39:24;101223.55;;;-10.43;70.17
75549;BME280;64133;56.002;37.208;2023-12-07T20:44:29;101235.81;;;-10.69;70.05
75549;BME280;64133;56.002;37.208;2023-12-07T20:49:37;101228.47;;;-10.73;70.43
75549;BME280;64133;56.002;37.208;2023-12-07T20:54:43;101235.75;;;-10.45;70.37
75549;BME280;64133;56.002;37.208;2023-12-07T20:59:47;101235.84;;;-10.68;70.20
75549;BME280;64133;56.002;37.208;2023-12-07T21:04:52;101233.39;;;-10.53;70.02
75549;BME280;64133;56.002;37.208;2023-12-07T21:09:57;101236.53;;;-10.60;70.28
75549;BME280;64133;56.002;37.208;2023-12-07T21:15:02;101241.48;;;-10.52;70.04
75549;BME280;64133;56.002;37.208;2023-12-07T21:20:09;101240.34;;;-10.60;70.10
75549;BME280;64133;56.002;37.208;2023-12-07T21:25:14;101231.37;;;-10.36;69.61
75549;BME280;64133;56.002;37.208;2023-12-07T21:30:20;101224.36;;;-10.69;69.86
75549;BME280;64133;56.002;37.208;2023-12-07T21:35:25;101231.03;;;-10.60;70.48
75549;BME280;64133;56.002;37.208;2023-12-07T21:40:30;101230.92;;;-10.50;70.36
75549;BME280;64133;56.002;37.208;2023-12-07T21:45:35;101227.73;;;-10.57;70.53
75549;BME280;64133;56.002;37.208;2023-12-07T21:50:40;101232.00;;;-10.44;71.05
75549;BME280;64133;56.002;37.208;2023-12-07T21:55:45;101239.83;;;-10.63;69.87
75549;BME280;64133;56.002;37.208;2023-12-07T22:00:50;101233.37;;;-10.66;70.72
75549;BME280;64133;56.002;37.208;2023-12-07T22:05:55;101235.09;;;-10.78;70.00
75549;BME280;64133;56.002;37.208;2023-12-07T22:11:00;101239.52;;;-10.72;70.43
75549;BME280;64133;56.002;37.208;2023-12-07T22:16:06;101240.77;;;-10.61;70.01
75549;BME280;64133;56.002;37.208;2023-12-07T22:21:09;101242.99;;;-10.94;70.34
75549;BME280;64133;56.002;37.208;2023-12-07T22:26:14;101237.16;;;-10.92;70.85
75549;BME280;64133;56.002;37.208;2023-12-07T22:31:19;101231.34;;;-11.00;70.51
75549;BME280;64133;56.002;37.208;2023-12-07T22:36:24;101241.16;;;-11.22;70.27
75549;BME280;64133;56.002;37.208;2023-12-07T22:41:29;101240.58;;;-11.26;72.37
75549;BME280;64133;56.002;37.208;2023-12-07T22:46:34;101238.06;;;-10.90;72.41
75549;BME280;64133;56.002;37.208;2023-12-07T22:51:39;101227.95;;;-11.23;70.79
75549;BME280;64133;56.002;37.208;2023-12-07T22:56:44;101222.74;;;-11.15;70.21
75549;BME280;64133;56.002;37.208;2023-12-07T23:01:49;101228.69;;;-11.38;69.95
75549;BME280;64133;56.002;37.208;2023-12-07T23:06:54;101224.17;;;-11.46;70.66
75549;BME280;64133;56.002;37.208;2023-12-07T23:11:59;101225.57;;;-11.31;70.45
75549;BME280;64133;56.002;37.208;2023-12-07T23:17:05;101230.13;;;-11.45;69.91
75549;BME280;64133;56.002;37.208;2023-12-07T23:22:10;101229.91;;;-11.40;69.97
75549;BME280;64133;56.002;37.208;2023-12-07T23:27:15;101226.39;;;-11.44;69.74
75549;BME280;64133;56.002;37.208;2023-12-07T23:32:19;101223.77;;;-11.34;69.67
75549;BME280;64133;56.002;37.208;2023-12-07T23:37:24;101225.04;;;-11.34;69.11
75549;BME280;64133;56.002;37.208;2023-12-07T23:42:29;101225.98;;;-11.43;69.04
75549;BME280;64133;56.002;37.208;2023-12-07T23:47:34;101223.48;;;-11.42;69.06
75549;BME280;64133;56.002;37.208;2023-12-07T23:52:39;101222.91;;;-11.34;69.54
75549;BME280;64133;56.002;37.208;2023-12-07T23:57:44;101221.47;;;-11.39;69.37
